createdAt,value
2022-10-22T00:01:40.735Z,8.27
2022-10-22T00:07:47.683Z,9.27
2022-10-22T00:10:50.522Z,9.43
2022-10-22T00:13:55.051Z,8.40
2022-10-22T00:17:00.912Z,8.47
2022-10-22T00:20:04.001Z,9.33
2022-10-22T00:23:07.180Z,8.33
2022-10-22T00:26:10.387Z,8.30
2022-10-22T00:29:14.685Z,7.03
2022-10-22T00:32:17.806Z,8.60
2022-10-22T00:35:20.501Z,7.20
2022-10-22T00:38:23.694Z,6.03
2022-10-22T00:41:26.435Z,8.00
2022-10-22T00:45:07.378Z,8.23
2022-10-22T00:48:13.248Z,8.60
2022-10-22T00:51:16.984Z,9.73
2022-10-22T00:54:20.089Z,9.30
2022-10-22T00:57:23.854Z,9.50
2022-10-22T01:00:28.431Z,8.40
2022-10-22T01:03:32.779Z,8.33
2022-10-22T01:06:35.811Z,8.13
2022-10-22T01:09:44.328Z,7.90
2022-10-22T01:12:56.375Z,8.00
2022-10-22T01:16:07.323Z,8.97
2022-10-22T01:19:26.921Z,9.63
2022-10-22T01:22:33.348Z,8.73
2022-10-22T01:25:38.949Z,7.83
2022-10-22T01:28:57.326Z,8.03
2022-10-22T01:32:03.744Z,8.47
2022-10-22T01:35:10.630Z,3.73
2022-10-22T01:38:18.284Z,7.30
2022-10-22T01:41:21.550Z,7.33
2022-10-22T01:44:28.176Z,6.67
2022-10-22T01:47:44.199Z,6.70
2022-10-22T01:51:04.115Z,6.87
2022-10-22T01:54:17.151Z,2.67
2022-10-22T01:57:30.908Z,2.70
2022-10-22T02:00:39.555Z,3.00
2022-10-22T02:03:47.741Z,2.13
2022-10-22T02:06:54.219Z,1.30
2022-10-22T02:09:58.951Z,2.00
2022-10-22T02:13:03.299Z,1.50
2022-10-22T02:16:10.206Z,1.37
2022-10-22T02:19:20.275Z,1.40
2022-10-22T02:22:23.419Z,1.30
2022-10-22T02:25:31.280Z,1.17
2022-10-22T02:28:38.964Z,1.30
2022-10-22T02:31:45.447Z,1.20
2022-10-22T02:34:50.222Z,1.30
2022-10-22T02:37:56.732Z,1.00
2022-10-22T02:41:00.338Z,1.00
2022-10-22T02:44:03.514Z,0.93
2022-10-22T02:47:07.769Z,0.97
2022-10-22T02:50:11.358Z,1.00
2022-10-22T02:53:14.274Z,0.90
2022-10-22T02:56:17.550Z,1.00
2022-10-22T02:59:20.629Z,1.00
2022-10-22T03:02:24.820Z,1.13
2022-10-22T03:05:27.940Z,0.97
2022-10-22T03:08:30.695Z,0.77
2022-10-22T03:11:33.826Z,1.00
2022-10-22T03:14:36.626Z,0.80
2022-10-22T03:17:41.420Z,0.90
2022-10-22T03:20:44.441Z,0.90
2022-10-22T03:23:47.975Z,0.80
2022-10-22T03:26:53.442Z,0.80
2022-10-22T03:29:57.998Z,0.80
2022-10-22T03:33:02.038Z,0.80
2022-10-22T03:36:05.519Z,0.87
2022-10-22T03:39:09.417Z,0.93
2022-10-22T03:42:13.343Z,1.00
2022-10-22T03:45:16.452Z,0.87
2022-10-22T03:48:20.491Z,0.77
2022-10-22T03:51:23.626Z,1.10
2022-10-22T03:54:26.460Z,0.90
2022-10-22T03:57:29.730Z,0.80
2022-10-22T04:00:32.907Z,0.90
2022-10-22T04:03:38.149Z,1.40
2022-10-22T04:06:41.081Z,1.07
2022-10-22T04:09:43.757Z,1.30
2022-10-22T04:12:48.555Z,1.37
2022-10-22T04:15:51.932Z,1.10
2022-10-22T04:18:56.334Z,1.00
2022-10-22T04:21:59.722Z,1.00
2022-10-22T04:25:03.094Z,1.57
2022-10-22T04:28:07.636Z,1.10
2022-10-22T04:31:12.162Z,1.27
2022-10-22T04:34:16.325Z,1.10
2022-10-22T04:37:19.412Z,1.87
2022-10-22T04:40:22.535Z,5.13
2022-10-22T04:43:25.686Z,2.93
2022-10-22T04:46:32.477Z,1.50
2022-10-22T04:49:38.579Z,1.80
2022-10-22T04:52:41.274Z,1.60
2022-10-22T04:55:44.007Z,1.70
2022-10-22T04:58:47.445Z,1.60
2022-10-22T05:01:50.158Z,1.90
2022-10-22T05:04:54.695Z,1.40
2022-10-22T05:07:57.850Z,1.23
2022-10-22T05:11:00.568Z,1.23
2022-10-22T05:14:06.394Z,1.70
2022-10-22T05:17:09.130Z,1.00
2022-10-22T05:20:14.042Z,1.60
2022-10-22T05:23:16.798Z,1.30
2022-10-22T05:26:21.933Z,1.30
2022-10-22T05:29:25.179Z,2.00
2022-10-22T05:32:28.413Z,2.13
2022-10-22T05:35:32.485Z,2.30
2022-10-22T05:38:36.549Z,2.33
2022-10-22T05:41:39.657Z,2.70
2022-10-22T05:44:42.475Z,4.33
2022-10-22T05:47:45.183Z,2.70
2022-10-22T05:50:51.751Z,3.83
2022-10-22T05:53:56.193Z,2.70
2022-10-22T05:56:59.339Z,3.17
2022-10-22T06:00:02.087Z,2.90
2022-10-22T06:03:05.383Z,2.20
2022-10-22T06:06:20.587Z,2.10
2022-10-22T06:09:25.941Z,2.20
2022-10-22T06:12:28.758Z,3.10
2022-10-22T06:15:32.127Z,2.27
2022-10-22T06:18:35.198Z,2.40
2022-10-22T06:21:39.799Z,3.10
2022-10-22T06:24:45.060Z,4.73
2022-10-22T06:27:51.521Z,5.80
2022-10-22T06:30:54.432Z,6.47
2022-10-22T06:33:58.411Z,5.80
2022-10-22T06:37:02.535Z,5.20
2022-10-22T06:40:06.225Z,6.60
2022-10-22T06:43:08.942Z,4.90
2022-10-22T06:46:14.834Z,5.20
2022-10-22T06:49:21.643Z,4.27
2022-10-22T06:52:26.340Z,4.13
2022-10-22T06:55:29.190Z,5.90
2022-10-22T06:58:31.980Z,6.13
2022-10-22T07:01:36.811Z,3.47
2022-10-22T07:04:39.569Z,3.13
2022-10-22T07:07:43.997Z,3.30
2022-10-22T07:10:46.680Z,3.17
2022-10-22T07:13:50.219Z,3.43
2022-10-22T07:16:53.463Z,5.80
2022-10-22T07:19:56.201Z,4.90
2022-10-22T07:23:00.277Z,6.30
2022-10-22T07:26:04.086Z,6.57
2022-10-22T07:29:07.380Z,10.27
2022-10-22T07:32:10.466Z,7.00
2022-10-22T07:35:13.219Z,7.70
2022-10-22T07:38:17.716Z,6.07
2022-10-22T07:41:20.440Z,5.27
2022-10-22T07:44:23.295Z,4.30
2022-10-22T07:47:26.011Z,5.00
2022-10-22T07:50:28.878Z,3.30
2022-10-22T07:53:33.528Z,2.90
2022-10-22T07:56:36.370Z,2.60
2022-10-22T07:59:39.163Z,2.67
2022-10-22T08:02:42.394Z,2.00
2022-10-22T08:05:45.757Z,2.20
2022-10-22T08:08:50.238Z,2.10
2022-10-22T08:11:52.993Z,1.90
2022-10-22T08:14:56.247Z,3.00
2022-10-22T08:17:58.997Z,3.00
2022-10-22T08:21:02.948Z,4.50
2022-10-22T08:27:10.532Z,4.00
2022-10-22T08:30:14.264Z,4.27
2022-10-22T08:33:17.087Z,2.23
2022-10-22T08:36:19.792Z,2.50
2022-10-22T08:39:25.231Z,2.70
2022-10-22T08:42:48.273Z,2.80
2022-10-22T08:46:01.083Z,2.57
2022-10-22T08:52:19.787Z,1.30
2022-10-22T08:55:25.802Z,1.37
2022-10-22T08:58:37.389Z,1.00
2022-10-22T09:01:44.386Z,0.80
2022-10-22T09:04:58.340Z,0.60
2022-10-22T09:08:02.112Z,0.80
2022-10-22T09:11:15.078Z,0.80
2022-10-22T09:14:20.584Z,0.90
2022-10-22T09:17:29.337Z,1.10
2022-10-22T09:20:42.341Z,0.50
2022-10-22T09:23:58.274Z,1.10
2022-10-22T09:27:04.348Z,0.63
2022-10-22T09:30:08.470Z,0.60
2022-10-22T09:33:19.190Z,0.70
2022-10-22T09:36:24.623Z,0.70
2022-10-22T09:39:29.804Z,1.13
2022-10-22T09:42:35.050Z,0.50
2022-10-22T09:45:37.784Z,0.70
2022-10-22T09:48:44.078Z,1.00
2022-10-22T09:51:52.180Z,0.80
2022-10-22T09:54:54.909Z,0.73
2022-10-22T09:58:02.213Z,0.80
2022-10-22T10:01:05.047Z,1.00
2022-10-22T10:04:11.081Z,0.90
2022-10-22T10:07:18.958Z,0.50
2022-10-22T10:10:34.151Z,0.60
2022-10-22T10:13:48.070Z,0.70
2022-10-22T10:16:58.946Z,0.70
2022-10-22T10:20:14.571Z,0.50
2022-10-22T10:23:28.084Z,0.70
2022-10-22T10:26:39.686Z,0.40
2022-10-22T10:29:55.568Z,0.40
2022-10-22T10:33:17.569Z,0.40
2022-10-22T10:36:29.066Z,0.50
2022-10-22T10:39:40.432Z,0.50
2022-10-22T10:42:48.041Z,0.30
2022-10-22T10:46:02.509Z,0.30
2022-10-22T10:49:11.070Z,0.30
2022-10-22T10:52:21.605Z,0.30
2022-10-22T10:55:31.419Z,0.43
2022-10-22T10:58:47.167Z,0.70
2022-10-22T11:02:17.377Z,0.40
2022-10-22T11:05:38.423Z,0.40
2022-10-22T11:08:46.615Z,0.70
2022-10-22T11:11:53.907Z,0.60
2022-10-22T11:15:03.370Z,0.50
2022-10-22T11:18:17.102Z,0.40
2022-10-22T11:21:27.383Z,0.53
2022-10-22T11:24:37.098Z,1.00
2022-10-22T11:27:46.991Z,0.60
2022-10-22T11:30:56.064Z,0.67
2022-10-22T11:34:28.578Z,0.60
2022-10-22T11:37:34.863Z,0.43
2022-10-22T11:40:39.417Z,0.70
2022-10-22T11:43:58.392Z,0.60
2022-10-22T11:47:16.392Z,0.70
2022-10-22T11:50:25.321Z,0.87
2022-10-22T11:53:33.132Z,0.70
2022-10-22T11:56:40.317Z,0.67
2022-10-22T11:59:49.584Z,0.70
2022-10-22T12:03:04.468Z,0.50
2022-10-22T12:06:21.024Z,0.73
2022-10-22T12:09:27.394Z,0.60
2022-10-22T12:12:39.401Z,0.70
2022-10-22T12:15:49.145Z,1.03
2022-10-22T12:18:58.499Z,0.70
2022-10-22T12:22:14.806Z,0.93
2022-10-22T12:25:22.584Z,0.50
2022-10-22T12:28:25.325Z,0.80
2022-10-22T12:31:29.426Z,0.70
2022-10-22T12:34:32.171Z,1.00
2022-10-22T12:37:38.658Z,0.70
2022-10-22T12:40:45.964Z,0.90
2022-10-22T12:44:00.026Z,0.63
2022-10-22T12:47:03.585Z,0.77
2022-10-22T12:50:07.152Z,1.00
2022-10-22T12:53:16.365Z,0.97
2022-10-22T12:56:23.238Z,0.90
2022-10-22T12:59:28.862Z,0.60
2022-10-22T13:02:31.878Z,0.87
2022-10-22T13:05:39.147Z,0.67
2022-10-22T13:08:44.350Z,0.80
2022-10-22T13:11:54.125Z,0.70
2022-10-22T13:14:57.025Z,0.53
2022-10-22T13:18:04.196Z,0.97
2022-10-22T13:21:06.972Z,0.97
2022-10-22T13:24:23.883Z,0.77
2022-10-22T13:27:28.282Z,0.97
2022-10-22T13:30:33.688Z,0.60
2022-10-22T13:33:39.084Z,0.77
2022-10-22T13:36:42.034Z,0.60
2022-10-22T13:39:46.283Z,0.60
2022-10-22T13:42:49.410Z,0.63
2022-10-22T13:45:55.341Z,0.60
2022-10-22T13:48:59.038Z,0.70
2022-10-22T13:52:01.951Z,0.70
2022-10-22T13:55:15.639Z,0.50
2022-10-22T13:58:21.358Z,0.57
2022-10-22T14:01:25.913Z,0.50
2022-10-22T14:04:28.747Z,0.73
2022-10-22T14:07:31.459Z,0.60
2022-10-22T14:10:36.027Z,1.03
2022-10-22T14:13:38.834Z,0.70
2022-10-22T14:16:41.864Z,0.90
2022-10-22T14:19:46.541Z,1.20
2022-10-22T14:22:51.232Z,0.60
2022-10-22T14:25:55.563Z,0.73
2022-10-22T14:29:14.387Z,0.67
2022-10-22T14:32:20.278Z,0.70
2022-10-22T14:35:23.745Z,0.80
2022-10-22T14:38:26.616Z,0.67
2022-10-22T14:41:31.091Z,0.60
2022-10-22T14:44:33.787Z,1.00
2022-10-22T14:47:36.514Z,0.80
2022-10-22T14:50:39.619Z,1.50
2022-10-22T14:53:42.984Z,1.00
2022-10-22T14:56:47.009Z,0.97
2022-10-22T14:59:50.311Z,0.90
2022-10-22T15:02:55.666Z,0.70
2022-10-22T15:05:58.606Z,1.13
2022-10-22T15:09:01.394Z,0.73
2022-10-22T15:12:06.242Z,1.00
2022-10-22T15:15:09.737Z,4.90
2022-10-22T15:18:12.525Z,2.80
2022-10-22T15:21:16.945Z,1.87
2022-10-22T15:24:19.678Z,1.93
2022-10-22T15:27:23.818Z,1.93
2022-10-22T15:30:26.517Z,1.80
2022-10-22T15:33:30.426Z,19.47
2022-10-22T15:36:33.321Z,3.97
2022-10-22T15:39:36.416Z,12.57
2022-10-22T15:42:40.855Z,4.30
2022-10-22T15:45:43.870Z,11.77
2022-10-22T15:48:47.356Z,13.03
2022-10-22T15:51:50.945Z,4.50
2022-10-22T15:54:53.770Z,1.90
2022-10-22T15:58:00.556Z,1.47
2022-10-22T16:01:07.366Z,1.50
2022-10-22T16:04:10.442Z,1.10
2022-10-22T16:07:13.360Z,0.97
2022-10-22T16:10:16.404Z,1.23
2022-10-22T16:13:21.763Z,4.90
2022-10-22T16:16:25.153Z,11.20
2022-10-22T16:19:28.355Z,5.33
2022-10-22T16:22:31.352Z,2.40
2022-10-22T16:25:38.909Z,1.67
2022-10-22T16:28:44.282Z,2.00
2022-10-22T16:31:47.326Z,1.80
2022-10-22T16:34:50.099Z,1.97
2022-10-22T16:37:52.799Z,2.17
2022-10-22T16:40:55.838Z,2.10
2022-10-22T16:44:02.338Z,2.13
2022-10-22T16:47:05.084Z,8.90
2022-10-22T16:50:08.700Z,9.60
2022-10-22T16:53:11.779Z,3.40
2022-10-22T16:56:16.237Z,4.33
2022-10-22T16:59:20.532Z,3.83
2022-10-22T17:02:23.277Z,4.40
2022-10-22T17:05:26.500Z,3.80
2022-10-22T17:08:29.715Z,4.63
2022-10-22T17:11:37.040Z,4.80
2022-10-22T17:14:43.685Z,4.93
2022-10-22T17:17:50.874Z,14.27
2022-10-22T17:20:56.497Z,3.70
2022-10-22T17:23:59.964Z,3.83
2022-10-22T17:30:11.734Z,6.07
2022-10-22T17:33:14.797Z,1.60
2022-10-22T17:36:19.220Z,4.20
2022-10-22T17:39:22.173Z,3.63
2022-10-22T17:42:24.943Z,2.37
2022-10-22T17:45:29.135Z,1.80
2022-10-22T17:48:32.137Z,1.90
2022-10-22T17:51:35.039Z,2.60
2022-10-22T17:54:38.541Z,4.17
2022-10-22T17:57:41.404Z,6.07
2022-10-22T18:00:45.673Z,8.57
2022-10-22T18:03:48.724Z,7.43
2022-10-22T18:06:51.490Z,6.50
2022-10-22T18:09:54.535Z,6.47
2022-10-22T18:12:57.567Z,7.97
2022-10-22T18:16:02.050Z,3.47
2022-10-22T18:19:05.659Z,2.80
2022-10-22T18:22:08.698Z,3.10
2022-10-22T18:25:13.395Z,2.80
2022-10-22T18:28:18.047Z,3.87
2022-10-22T18:31:25.044Z,4.13
2022-10-22T18:34:29.516Z,3.67
2022-10-22T18:37:32.997Z,3.83
2022-10-22T18:40:36.702Z,3.80
2022-10-22T18:43:39.428Z,2.97
2022-10-22T18:46:43.827Z,3.30
2022-10-22T18:49:47.486Z,3.13
2022-10-22T18:52:50.176Z,3.20
2022-10-22T18:55:53.275Z,3.03
2022-10-22T18:58:56.007Z,3.20
2022-10-22T19:02:00.491Z,3.23
2022-10-22T19:05:03.312Z,3.40
2022-10-22T19:08:06.535Z,4.20
2022-10-22T19:11:11.254Z,2.73
2022-10-22T19:14:19.222Z,3.50
2022-10-22T19:17:24.303Z,3.20
2022-10-22T19:20:27.141Z,3.50
2022-10-22T19:23:31.612Z,3.50
2022-10-22T19:26:34.665Z,5.43
2022-10-22T19:29:37.571Z,8.13
2022-10-22T19:32:41.878Z,11.63
2022-10-22T19:35:45.079Z,7.40
2022-10-22T19:38:49.487Z,8.10
2022-10-22T19:41:52.519Z,7.60
2022-10-22T19:44:55.186Z,12.10
2022-10-22T19:47:59.575Z,6.93
2022-10-22T19:51:04.151Z,9.87
2022-10-22T19:54:09.507Z,8.70
2022-10-22T19:57:16.269Z,6.63
2022-10-22T20:00:19.702Z,6.33
2022-10-22T20:03:24.093Z,3.93
2022-10-22T20:06:27.183Z,4.50
2022-10-22T20:09:29.924Z,3.50
2022-10-22T20:12:32.845Z,4.10
2022-10-22T20:15:36.460Z,4.13
2022-10-22T20:18:41.162Z,4.10
2022-10-22T20:21:44.821Z,4.40
2022-10-22T20:24:47.520Z,3.83
2022-10-22T20:27:50.678Z,4.53
2022-10-22T20:30:54.851Z,5.53
2022-10-22T20:34:01.939Z,4.20
2022-10-22T20:37:04.743Z,3.53
2022-10-22T20:40:09.068Z,4.40
2022-10-22T20:43:12.458Z,5.00
2022-10-22T20:46:18.900Z,5.37
2022-10-22T20:49:23.282Z,5.80
2022-10-22T20:52:25.997Z,5.03
2022-10-22T20:55:29.035Z,6.20
2022-10-22T20:58:32.011Z,4.97
2022-10-22T21:01:39.238Z,6.10
2022-10-22T21:04:45.583Z,5.07
2022-10-22T21:07:49.565Z,4.60
2022-10-22T21:10:52.633Z,4.10
2022-10-22T21:13:55.359Z,4.67
2022-10-22T21:16:59.564Z,3.80
2022-10-22T21:20:03.898Z,5.20
2022-10-22T21:23:07.139Z,5.87
2022-10-22T21:26:09.930Z,5.93
2022-10-22T21:29:14.119Z,6.50
2022-10-22T21:32:16.893Z,5.43
2022-10-22T21:35:21.389Z,6.53
2022-10-22T21:38:25.411Z,6.53
2022-10-22T21:41:28.587Z,5.60
2022-10-22T21:44:31.670Z,5.23
2022-10-22T21:47:34.399Z,5.30
2022-10-22T21:50:41.803Z,5.20
2022-10-22T21:53:45.307Z,5.47
2022-10-22T21:56:49.346Z,5.80
2022-10-22T21:59:52.031Z,5.53
2022-10-22T22:02:55.431Z,5.20
2022-10-22T22:06:00.551Z,4.27
2022-10-22T22:09:05.295Z,5.40
2022-10-22T22:12:09.017Z,4.43
2022-10-22T22:15:11.982Z,5.70
2022-10-22T22:18:14.702Z,5.30
2022-10-22T22:21:21.428Z,6.17
2022-10-22T22:24:24.198Z,6.30
2022-10-22T22:27:27.282Z,5.87
2022-10-22T22:30:30.603Z,6.23
2022-10-22T22:33:33.415Z,6.23
2022-10-22T22:36:39.923Z,5.90
2022-10-22T22:39:42.687Z,6.30
2022-10-22T22:42:45.846Z,5.90
2022-10-22T22:45:48.941Z,6.23
2022-10-22T22:48:52.165Z,6.03
2022-10-22T22:51:56.278Z,6.17
2022-10-22T22:54:59.004Z,6.13
2022-10-22T22:58:02.251Z,5.57
2022-10-22T23:01:13.483Z,6.53
2022-10-22T23:04:19.643Z,6.80
2022-10-22T23:07:23.719Z,7.93
2022-10-22T23:10:26.516Z,7.10
2022-10-22T23:13:29.366Z,6.70
2022-10-22T23:16:34.438Z,6.30
2022-10-22T23:19:37.145Z,6.53
2022-10-22T23:22:41.627Z,6.13
2022-10-22T23:25:44.549Z,5.57
2022-10-22T23:28:47.677Z,6.67
2022-10-22T23:31:51.068Z,5.97
2022-10-22T23:34:53.731Z,6.40
2022-10-22T23:37:57.911Z,6.50
2022-10-22T23:41:00.811Z,6.70
2022-10-22T23:44:03.868Z,7.80
2022-10-22T23:47:06.659Z,7.13
2022-10-22T23:50:09.458Z,6.70
2022-10-22T23:53:13.621Z,6.83
2022-10-22T23:56:18.965Z,7.37
2022-10-22T23:59:22.011Z,7.37
